sensor_id;sensor_type;location;lat;lon;timestamp;temperature;humidity
2539;DHT22;1280;49.760;9.664;2023-08-06T00:01:20;19.50;78.70
2539;DHT22;1280;49.760;9.664;2023-08-06T00:03:49;19.40;78.70
2539;DHT22;1280;49.760;9.664;2023-08-06T00:06:17;19.40;78.70
2539;DHT22;1280;49.760;9.664;2023-08-06T00:08:45;19.40;78.70
2539;DHT22;1280;49.760;9.664;2023-08-06T00:11:15;19.50;78.70
2539;DHT22;1280;49.760;9.664;2023-08-06T00:13:43;19.50;78.70
2539;DHT22;1280;49.760;9.664;2023-08-06T00:16:11;19.50;78.70
2539;DHT22;1280;49.760;9.664;2023-08-06T00:18:40;19.50;78.70
2539;DHT22;1280;49.760;9.664;2023-08-06T00:21:08;19.50;78.70
2539;DHT22;1280;49.760;9.664;2023-08-06T00:23:39;19.50;78.70
2539;DHT22;1280;49.760;9.664;2023-08-06T00:26:07;19.40;78.70
2539;DHT22;1280;49.760;9.664;2023-08-06T00:28:36;19.40;78.60
2539;DHT22;1280;49.760;9.664;2023-08-06T00:31:04;19.30;78.70
2539;DHT22;1280;49.760;9.664;2023-08-06T00:33:32;19.30;78.80
2539;DHT22;1280;49.760;9.664;2023-08-06T00:36:01;19.30;78.90
2539;DHT22;1280;49.760;9.664;2023-08-06T00:38:29;19.20;79.00
2539;DHT22;1280;49.760;9.664;2023-08-06T00:40:57;19.20;79.00
2539;DHT22;1280;49.760;9.664;2023-08-06T00:43:25;19.20;79.10
2539;DHT22;1280;49.760;9.664;2023-08-06T00:45:55;19.20;79.10
2539;DHT22;1280;49.760;9.664;2023-08-06T00:48:23;19.20;79.20
2539;DHT22;1280;49.760;9.664;2023-08-06T00:50:52;19.20;79.20
2539;DHT22;1280;49.760;9.664;2023-08-06T00:53:21;19.20;79.20
2539;DHT22;1280;49.760;9.664;2023-08-06T00:55:49;19.20;79.30
2539;DHT22;1280;49.760;9.664;2023-08-06T00:58:18;19.20;79.30
2539;DHT22;1280;49.760;9.664;2023-08-06T01:00:46;19.20;79.30
2539;DHT22;1280;49.760;9.664;2023-08-06T01:03:16;19.20;79.20
2539;DHT22;1280;49.760;9.664;2023-08-06T01:05:44;19.20;79.30
2539;DHT22;1280;49.760;9.664;2023-08-06T01:08:22;19.20;79.30
2539;DHT22;1280;49.760;9.664;2023-08-06T01:11:03;19.20;79.30
2539;DHT22;1280;49.760;9.664;2023-08-06T01:13:38;19.10;79.30
2539;DHT22;1280;49.760;9.664;2023-08-06T01:16:09;19.10;79.30
2539;DHT22;1280;49.760;9.664;2023-08-06T01:18:40;19.10;79.30
2539;DHT22;1280;49.760;9.664;2023-08-06T01:21:12;19.10;79.30
2539;DHT22;1280;49.760;9.664;2023-08-06T01:23:40;19.00;79.30
2539;DHT22;1280;49.760;9.664;2023-08-06T01:26:14;19.10;79.40
2539;DHT22;1280;49.760;9.664;2023-08-06T01:28:48;19.10;79.40
2539;DHT22;1280;49.760;9.664;2023-08-06T01:31:24;19.10;79.40
2539;DHT22;1280;49.760;9.664;2023-08-06T01:33:56;19.10;79.40
2539;DHT22;1280;49.760;9.664;2023-08-06T01:36:25;19.10;79.30
2539;DHT22;1280;49.760;9.664;2023-08-06T01:38:54;19.00;79.40
2539;DHT22;1280;49.760;9.664;2023-08-06T01:41:24;19.10;79.40
2539;DHT22;1280;49.760;9.664;2023-08-06T01:43:52;19.10;79.40
2539;DHT22;1280;49.760;9.664;2023-08-06T01:46:20;19.00;79.40
2539;DHT22;1280;49.760;9.664;2023-08-06T01:48:48;19.00;79.40
2539;DHT22;1280;49.760;9.664;2023-08-06T01:51:16;19.00;79.30
2539;DHT22;1280;49.760;9.664;2023-08-06T01:53:45;19.00;79.40
2539;DHT22;1280;49.760;9.664;2023-08-06T01:56:13;19.00;79.30
2539;DHT22;1280;49.760;9.664;2023-08-06T01:58:41;19.00;79.20
2539;DHT22;1280;49.760;9.664;2023-08-06T02:01:09;18.90;79.20
2539;DHT22;1280;49.760;9.664;2023-08-06T02:03:37;18.90;79.10
2539;DHT22;1280;49.760;9.664;2023-08-06T02:06:08;18.90;79.10
2539;DHT22;1280;49.760;9.664;2023-08-06T02:08:36;18.90;79.10
2539;DHT22;1280;49.760;9.664;2023-08-06T02:11:06;18.80;79.10
2539;DHT22;1280;49.760;9.664;2023-08-06T02:13:35;18.80;79.10
2539;DHT22;1280;49.760;9.664;2023-08-06T02:16:03;18.80;79.00
2539;DHT22;1280;49.760;9.664;2023-08-06T02:18:31;18.80;79.00
2539;DHT22;1280;49.760;9.664;2023-08-06T02:21:00;18.70;79.00
2539;DHT22;1280;49.760;9.664;2023-08-06T02:23:28;18.70;79.10
2539;DHT22;1280;49.760;9.664;2023-08-06T02:25:57;18.60;79.20
2539;DHT22;1280;49.760;9.664;2023-08-06T02:28:28;18.70;79.20
2539;DHT22;1280;49.760;9.664;2023-08-06T02:30:56;18.70;79.10
2539;DHT22;1280;49.760;9.664;2023-08-06T02:33:24;18.60;79.10
2539;DHT22;1280;49.760;9.664;2023-08-06T02:35:59;18.70;79.20
2539;DHT22;1280;49.760;9.664;2023-08-06T02:38:27;18.70;79.10
2539;DHT22;1280;49.760;9.664;2023-08-06T02:40:56;18.60;79.10
2539;DHT22;1280;49.760;9.664;2023-08-06T02:46:50;18.70;79.20
2539;DHT22;1280;49.760;9.664;2023-08-06T02:49:18;18.60;79.20
2539;DHT22;1280;49.760;9.664;2023-08-06T02:51:46;18.60;79.20
2539;DHT22;1280;49.760;9.664;2023-08-06T02:54:14;18.60;79.20
2539;DHT22;1280;49.760;9.664;2023-08-06T02:56:43;18.70;79.30
2539;DHT22;1280;49.760;9.664;2023-08-06T02:59:17;18.70;79.30
2539;DHT22;1280;49.760;9.664;2023-08-06T03:02:06;18.60;79.30
2539;DHT22;1280;49.760;9.664;2023-08-06T03:04:46;18.60;79.30
2539;DHT22;1280;49.760;9.664;2023-08-06T03:07:17;18.60;79.40
2539;DHT22;1280;49.760;9.664;2023-08-06T03:09:52;18.60;79.40
2539;DHT22;1280;49.760;9.664;2023-08-06T03:12:21;18.60;79.30
2539;DHT22;1280;49.760;9.664;2023-08-06T03:14:49;18.50;79.50
2539;DHT22;1280;49.760;9.664;2023-08-06T03:17:33;18.50;79.60
2539;DHT22;1280;49.760;9.664;2023-08-06T03:20:03;18.50;79.60
2539;DHT22;1280;49.760;9.664;2023-08-06T03:22:33;18.40;79.70
2539;DHT22;1280;49.760;9.664;2023-08-06T03:25:01;18.40;79.80
2539;DHT22;1280;49.760;9.664;2023-08-06T03:27:29;18.40;79.80
2539;DHT22;1280;49.760;9.664;2023-08-06T03:29:57;18.40;79.80
2539;DHT22;1280;49.760;9.664;2023-08-06T03:32:26;18.40;79.80
2539;DHT22;1280;49.760;9.664;2023-08-06T03:34:56;18.40;79.80
2539;DHT22;1280;49.760;9.664;2023-08-06T03:37:28;18.40;79.80
2539;DHT22;1280;49.760;9.664;2023-08-06T03:39:56;18.40;79.80
2539;DHT22;1280;49.760;9.664;2023-08-06T03:42:24;18.40;79.90
2539;DHT22;1280;49.760;9.664;2023-08-06T03:44:52;18.40;79.90
2539;DHT22;1280;49.760;9.664;2023-08-06T03:47:21;18.40;79.90
2539;DHT22;1280;49.760;9.664;2023-08-06T03:49:51;18.40;79.90
2539;DHT22;1280;49.760;9.664;2023-08-06T03:52:23;18.40;79.70
2539;DHT22;1280;49.760;9.664;2023-08-06T03:54:51;18.40;79.70
2539;DHT22;1280;49.760;9.664;2023-08-06T03:57:19;18.30;79.70
2539;DHT22;1280;49.760;9.664;2023-08-06T03:59:47;18.30;79.90
2539;DHT22;1280;49.760;9.664;2023-08-06T04:02:23;18.30;80.00
2539;DHT22;1280;49.760;9.664;2023-08-06T04:04:51;18.30;79.90
2539;DHT22;1280;49.760;9.664;2023-08-06T04:07:20;18.30;79.90
2539;DHT22;1280;49.760;9.664;2023-08-06T04:09:55;18.20;79.90
2539;DHT22;1280;49.760;9.664;2023-08-06T04:12:23;18.30;80.00
2539;DHT22;1280;49.760;9.664;2023-08-06T04:14:51;18.30;80.10
2539;DHT22;1280;49.760;9.664;2023-08-06T04:17:20;18.30;80.00
2539;DHT22;1280;49.760;9.664;2023-08-06T04:19:49;18.30;80.00
2539;DHT22;1280;49.760;9.664;2023-08-06T04:22:18;18.30;80.00
2539;DHT22;1280;49.760;9.664;2023-08-06T04:24:49;18.40;80.00
2539;DHT22;1280;49.760;9.664;2023-08-06T04:27:19;18.40;79.90
2539;DHT22;1280;49.760;9.664;2023-08-06T04:29:48;18.40;79.90
2539;DHT22;1280;49.760;9.664;2023-08-06T04:32:16;18.40;79.80
2539;DHT22;1280;49.760;9.664;2023-08-06T04:34:49;18.40;79.90
2539;DHT22;1280;49.760;9.664;2023-08-06T04:37:18;18.40;79.80
2539;DHT22;1280;49.760;9.664;2023-08-06T04:39:46;18.40;79.80
2539;DHT22;1280;49.760;9.664;2023-08-06T04:42:14;18.40;79.80
2539;DHT22;1280;49.760;9.664;2023-08-06T04:44:44;18.50;79.80
2539;DHT22;1280;49.760;9.664;2023-08-06T04:47:12;18.50;79.80
2539;DHT22;1280;49.760;9.664;2023-08-06T04:49:41;18.50;79.80
2539;DHT22;1280;49.760;9.664;2023-08-06T04:52:09;18.50;79.90
2539;DHT22;1280;49.760;9.664;2023-08-06T04:54:38;18.60;79.90
2539;DHT22;1280;49.760;9.664;2023-08-06T04:57:06;18.60;79.70
2539;DHT22;1280;49.760;9.664;2023-08-06T04:59:35;18.60;79.70
2539;DHT22;1280;49.760;9.664;2023-08-06T05:02:04;18.60;79.70
2539;DHT22;1280;49.760;9.664;2023-08-06T05:04:33;18.60;79.70
2539;DHT22;1280;49.760;9.664;2023-08-06T05:07:03;18.60;79.60
2539;DHT22;1280;49.760;9.664;2023-08-06T05:09:33;18.60;79.60
2539;DHT22;1280;49.760;9.664;2023-08-06T05:12:01;18.60;79.60
2539;DHT22;1280;49.760;9.664;2023-08-06T05:14:29;18.60;79.60
2539;DHT22;1280;49.760;9.664;2023-08-06T05:16:57;18.50;79.70
2539;DHT22;1280;49.760;9.664;2023-08-06T05:19:26;18.50;79.80
2539;DHT22;1280;49.760;9.664;2023-08-06T05:21:55;18.60;80.10
2539;DHT22;1280;49.760;9.664;2023-08-06T05:24:26;18.90;81.20
2539;DHT22;1280;49.760;9.664;2023-08-06T05:26:55;19.50;79.50
2539;DHT22;1280;49.760;9.664;2023-08-06T05:29:23;19.60;78.40
2539;DHT22;1280;49.760;9.664;2023-08-06T05:31:51;19.60;78.10
2539;DHT22;1280;49.760;9.664;2023-08-06T05:34:20;19.50;78.10
2539;DHT22;1280;49.760;9.664;2023-08-06T05:36:49;19.30;78.20
2539;DHT22;1280;49.760;9.664;2023-08-06T05:39:17;19.20;78.40
2539;DHT22;1280;49.760;9.664;2023-08-06T05:41:45;19.10;78.50
2539;DHT22;1280;49.760;9.664;2023-08-06T05:44:13;19.00;78.60
2539;DHT22;1280;49.760;9.664;2023-08-06T05:46:41;18.90;78.60
2539;DHT22;1280;49.760;9.664;2023-08-06T05:49:10;18.90;78.70
2539;DHT22;1280;49.760;9.664;2023-08-06T05:51:40;18.80;78.70
2539;DHT22;1280;49.760;9.664;2023-08-06T05:54:09;18.80;78.80
2539;DHT22;1280;49.760;9.664;2023-08-06T05:56:37;18.70;78.80
2539;DHT22;1280;49.760;9.664;2023-08-06T05:59:05;18.70;78.70
2539;DHT22;1280;49.760;9.664;2023-08-06T06:01:33;18.70;78.80
2539;DHT22;1280;49.760;9.664;2023-08-06T06:04:02;18.70;78.80
2539;DHT22;1280;49.760;9.664;2023-08-06T06:06:30;18.70;78.70
2539;DHT22;1280;49.760;9.664;2023-08-06T06:08:58;18.70;78.80
2539;DHT22;1280;49.760;9.664;2023-08-06T06:11:27;18.60;78.70
2539;DHT22;1280;49.760;9.664;2023-08-06T06:13:55;18.60;78.80
2539;DHT22;1280;49.760;9.664;2023-08-06T06:16:23;18.60;78.80
2539;DHT22;1280;49.760;9.664;2023-08-06T06:18:51;18.60;78.90
2539;DHT22;1280;49.760;9.664;2023-08-06T06:21:21;18.60;78.90
2539;DHT22;1280;49.760;9.664;2023-08-06T06:23:49;18.60;78.90
2539;DHT22;1280;49.760;9.664;2023-08-06T06:26:18;18.60;78.90
2539;DHT22;1280;49.760;9.664;2023-08-06T06:28:48;18.60;79.00
2539;DHT22;1280;49.760;9.664;2023-08-06T06:31:16;18.70;79.00
2539;DHT22;1280;49.760;9.664;2023-08-06T06:33:44;18.60;78.90
2539;DHT22;1280;49.760;9.664;2023-08-06T06:36:12;18.60;79.00
2539;DHT22;1280;49.760;9.664;2023-08-06T06:38:40;18.70;79.00
2539;DHT22;1280;49.760;9.664;2023-08-06T06:41:08;18.60;78.90
2539;DHT22;1280;49.760;9.664;2023-08-06T06:43:36;18.70;79.00
2539;DHT22;1280;49.760;9.664;2023-08-06T06:46:07;18.60;78.90
2539;DHT22;1280;49.760;9.664;2023-08-06T06:48:35;18.60;79.00
2539;DHT22;1280;49.760;9.664;2023-08-06T06:51:03;18.60;79.00
2539;DHT22;1280;49.760;9.664;2023-08-06T06:53:31;18.60;79.00
2539;DHT22;1280;49.760;9.664;2023-08-06T06:56:02;18.70;79.10
2539;DHT22;1280;49.760;9.664;2023-08-06T06:58:30;18.70;79.10
2539;DHT22;1280;49.760;9.664;2023-08-06T07:00:59;18.70;79.10
2539;DHT22;1280;49.760;9.664;2023-08-06T07:03:28;18.80;79.20
2539;DHT22;1280;49.760;9.664;2023-08-06T07:05:57;18.80;79.20
2539;DHT22;1280;49.760;9.664;2023-08-06T07:08:26;18.80;79.20
2539;DHT22;1280;49.760;9.664;2023-08-06T07:11:00;18.80;79.10
2539;DHT22;1280;49.760;9.664;2023-08-06T07:13:29;18.80;79.10
2539;DHT22;1280;49.760;9.664;2023-08-06T07:15:57;18.80;79.10
2539;DHT22;1280;49.760;9.664;2023-08-06T07:18:25;18.80;79.00
2539;DHT22;1280;49.760;9.664;2023-08-06T07:20:57;18.80;79.00
2539;DHT22;1280;49.760;9.664;2023-08-06T07:23:25;18.90;79.00
2539;DHT22;1280;49.760;9.664;2023-08-06T07:25:53;18.90;79.00
2539;DHT22;1280;49.760;9.664;2023-08-06T07:28:22;18.90;79.00
2539;DHT22;1280;49.760;9.664;2023-08-06T07:30:50;18.90;79.00
2539;DHT22;1280;49.760;9.664;2023-08-06T07:33:18;18.90;79.10
2539;DHT22;1280;49.760;9.664;2023-08-06T07:35:46;19.00;79.10
2539;DHT22;1280;49.760;9.664;2023-08-06T07:38:16;19.00;79.10
2539;DHT22;1280;49.760;9.664;2023-08-06T07:40:44;19.00;79.10
2539;DHT22;1280;49.760;9.664;2023-08-06T07:43:12;19.00;79.00
2539;DHT22;1280;49.760;9.664;2023-08-06T07:45:40;19.00;79.10
2539;DHT22;1280;49.760;9.664;2023-08-06T07:48:09;18.90;79.10
2539;DHT22;1280;49.760;9.664;2023-08-06T07:50:37;18.90;79.10
2539;DHT22;1280;49.760;9.664;2023-08-06T07:53:05;18.90;79.20
2539;DHT22;1280;49.760;9.664;2023-08-06T07:55:35;18.90;79.30
2539;DHT22;1280;49.760;9.664;2023-08-06T07:58:03;18.90;79.30
2539;DHT22;1280;49.760;9.664;2023-08-06T08:00:31;18.90;79.40
2539;DHT22;1280;49.760;9.664;2023-08-06T08:03:00;18.90;79.40
2539;DHT22;1280;49.760;9.664;2023-08-06T08:05:28;18.90;79.40
2539;DHT22;1280;49.760;9.664;2023-08-06T08:07:56;18.90;79.50
2539;DHT22;1280;49.760;9.664;2023-08-06T08:10:24;18.90;79.50
2539;DHT22;1280;49.760;9.664;2023-08-06T08:12:57;18.80;79.50
2539;DHT22;1280;49.760;9.664;2023-08-06T08:15:25;18.90;79.60
2539;DHT22;1280;49.760;9.664;2023-08-06T08:17:53;18.90;79.70
2539;DHT22;1280;49.760;9.664;2023-08-06T08:20:22;18.90;79.60
2539;DHT22;1280;49.760;9.664;2023-08-06T08:22:50;18.90;79.50
2539;DHT22;1280;49.760;9.664;2023-08-06T08:25:19;18.90;79.60
2539;DHT22;1280;49.760;9.664;2023-08-06T08:27:47;18.90;79.60
2539;DHT22;1280;49.760;9.664;2023-08-06T08:30:16;19.00;79.80
2539;DHT22;1280;49.760;9.664;2023-08-06T08:32:45;19.00;79.80
2539;DHT22;1280;49.760;9.664;2023-08-06T08:35:13;19.00;79.80
2539;DHT22;1280;49.760;9.664;2023-08-06T08:37:43;19.10;79.70
2539;DHT22;1280;49.760;9.664;2023-08-06T08:40:11;19.10;79.80
2539;DHT22;1280;49.760;9.664;2023-08-06T08:42:39;19.20;79.60
2539;DHT22;1280;49.760;9.664;2023-08-06T08:45:12;19.20;79.50
2539;DHT22;1280;49.760;9.664;2023-08-06T08:47:42;19.20;79.50
2539;DHT22;1280;49.760;9.664;2023-08-06T08:50:11;19.20;79.40
2539;DHT22;1280;49.760;9.664;2023-08-06T08:52:40;19.30;79.30
2539;DHT22;1280;49.760;9.664;2023-08-06T08:55:09;19.30;79.20
2539;DHT22;1280;49.760;9.664;2023-08-06T08:57:37;19.30;79.20
2539;DHT22;1280;49.760;9.664;2023-08-06T09:00:06;19.40;79.30
2539;DHT22;1280;49.760;9.664;2023-08-06T09:02:35;19.40;79.10
2539;DHT22;1280;49.760;9.664;2023-08-06T09:05:07;19.40;78.90
2539;DHT22;1280;49.760;9.664;2023-08-06T09:07:42;19.40;78.80
2539;DHT22;1280;49.760;9.664;2023-08-06T09:10:17;19.40;78.80
2539;DHT22;1280;49.760;9.664;2023-08-06T09:12:47;19.40;78.70
2539;DHT22;1280;49.760;9.664;2023-08-06T09:15:16;19.30;78.80
2539;DHT22;1280;49.760;9.664;2023-08-06T09:17:44;19.30;78.70
2539;DHT22;1280;49.760;9.664;2023-08-06T09:20:15;19.30;78.80
2539;DHT22;1280;49.760;9.664;2023-08-06T09:22:46;19.30;78.80
2539;DHT22;1280;49.760;9.664;2023-08-06T09:25:22;19.30;79.00
2539;DHT22;1280;49.760;9.664;2023-08-06T09:27:57;19.40;79.10
2539;DHT22;1280;49.760;9.664;2023-08-06T09:30:31;19.50;79.30
2539;DHT22;1280;49.760;9.664;2023-08-06T09:33:01;19.50;79.20
2539;DHT22;1280;49.760;9.664;2023-08-06T09:35:31;19.50;79.10
2539;DHT22;1280;49.760;9.664;2023-08-06T09:38:05;19.60;79.20
2539;DHT22;1280;49.760;9.664;2023-08-06T09:40:35;19.60;79.20
2539;DHT22;1280;49.760;9.664;2023-08-06T09:43:03;19.70;79.10
2539;DHT22;1280;49.760;9.664;2023-08-06T09:45:34;19.70;79.00
2539;DHT22;1280;49.760;9.664;2023-08-06T09:48:03;19.70;78.90
2539;DHT22;1280;49.760;9.664;2023-08-06T09:50:36;19.70;78.80
2539;DHT22;1280;49.760;9.664;2023-08-06T09:53:06;19.80;78.80
2539;DHT22;1280;49.760;9.664;2023-08-06T09:55:37;19.80;78.70
2539;DHT22;1280;49.760;9.664;2023-08-06T09:58:06;19.80;78.50
2539;DHT22;1280;49.760;9.664;2023-08-06T10:00:35;19.80;78.40
2539;DHT22;1280;49.760;9.664;2023-08-06T10:03:06;19.80;78.50
2539;DHT22;1280;49.760;9.664;2023-08-06T10:05:37;19.80;78.60
2539;DHT22;1280;49.760;9.664;2023-08-06T10:08:07;19.80;78.60
2539;DHT22;1280;49.760;9.664;2023-08-06T10:10:35;19.90;78.60
2539;DHT22;1280;49.760;9.664;2023-08-06T10:13:05;19.90;78.60
2539;DHT22;1280;49.760;9.664;2023-08-06T10:15:34;20.00;78.40
2539;DHT22;1280;49.760;9.664;2023-08-06T10:18:03;20.10;78.20
2539;DHT22;1280;49.760;9.664;2023-08-06T10:20:33;20.20;78.00
2539;DHT22;1280;49.760;9.664;2023-08-06T10:23:04;20.20;77.70
2539;DHT22;1280;49.760;9.664;2023-08-06T10:25:33;20.30;77.60
2539;DHT22;1280;49.760;9.664;2023-08-06T10:28:07;20.30;77.50
2539;DHT22;1280;49.760;9.664;2023-08-06T10:30:47;20.30;77.50
2539;DHT22;1280;49.760;9.664;2023-08-06T10:33:19;20.40;77.30
2539;DHT22;1280;49.760;9.664;2023-08-06T10:35:50;20.40;77.00
2539;DHT22;1280;49.760;9.664;2023-08-06T10:38:25;20.40;76.70
2539;DHT22;1280;49.760;9.664;2023-08-06T10:41:02;20.40;76.50
2539;DHT22;1280;49.760;9.664;2023-08-06T10:43:33;20.30;76.40
2539;DHT22;1280;49.760;9.664;2023-08-06T10:46:09;20.30;76.40
2539;DHT22;1280;49.760;9.664;2023-08-06T10:48:40;20.40;76.60
2539;DHT22;1280;49.760;9.664;2023-08-06T10:51:11;20.40;76.50
2539;DHT22;1280;49.760;9.664;2023-08-06T10:53:42;20.30;76.60
2539;DHT22;1280;49.760;9.664;2023-08-06T10:56:17;20.40;76.70
2539;DHT22;1280;49.760;9.664;2023-08-06T10:58:47;20.40;76.70
2539;DHT22;1280;49.760;9.664;2023-08-06T11:01:23;20.40;76.70
2539;DHT22;1280;49.760;9.664;2023-08-06T11:03:53;20.50;76.70
2539;DHT22;1280;49.760;9.664;2023-08-06T11:06:24;20.50;76.60
2539;DHT22;1280;49.760;9.664;2023-08-06T11:08:55;20.60;76.30
2539;DHT22;1280;49.760;9.664;2023-08-06T11:11:24;20.60;76.10
2539;DHT22;1280;49.760;9.664;2023-08-06T11:13:54;20.70;75.90
2539;DHT22;1280;49.760;9.664;2023-08-06T11:16:24;20.70;75.80
2539;DHT22;1280;49.760;9.664;2023-08-06T11:18:53;20.80;75.40
2539;DHT22;1280;49.760;9.664;2023-08-06T11:21:24;20.80;75.20
2539;DHT22;1280;49.760;9.664;2023-08-06T11:23:55;20.80;75.10
2539;DHT22;1280;49.760;9.664;2023-08-06T11:26:23;20.80;74.80
2539;DHT22;1280;49.760;9.664;2023-08-06T11:28:51;20.80;74.40
2539;DHT22;1280;49.760;9.664;2023-08-06T11:31:20;20.80;74.30
2539;DHT22;1280;49.760;9.664;2023-08-06T11:33:52;20.60;74.50
2539;DHT22;1280;49.760;9.664;2023-08-06T11:36:30;20.40;74.50
2539;DHT22;1280;49.760;9.664;2023-08-06T11:39:00;20.20;74.80
2539;DHT22;1280;49.760;9.664;2023-08-06T11:41:30;20.10;75.00
2539;DHT22;1280;49.760;9.664;2023-08-06T11:44:02;20.00;75.40
2539;DHT22;1280;49.760;9.664;2023-08-06T11:46:52;19.90;75.80
2539;DHT22;1280;49.760;9.664;2023-08-06T11:49:38;20.00;76.40
2539;DHT22;1280;49.760;9.664;2023-08-06T11:52:10;20.00;76.80
2539;DHT22;1280;49.760;9.664;2023-08-06T11:54:39;20.10;76.90
2539;DHT22;1280;49.760;9.664;2023-08-06T11:57:08;20.20;77.40
2539;DHT22;1280;49.760;9.664;2023-08-06T11:59:38;20.20;77.60
2539;DHT22;1280;49.760;9.664;2023-08-06T12:02:12;20.20;77.70
2539;DHT22;1280;49.760;9.664;2023-08-06T12:04:59;20.30;77.90
2539;DHT22;1280;49.760;9.664;2023-08-06T12:07:29;20.30;77.90
2539;DHT22;1280;49.760;9.664;2023-08-06T12:09:58;20.20;77.80
2539;DHT22;1280;49.760;9.664;2023-08-06T12:12:27;20.20;77.90
2539;DHT22;1280;49.760;9.664;2023-08-06T12:14:56;20.20;77.90
2539;DHT22;1280;49.760;9.664;2023-08-06T12:17:24;20.10;78.00
2539;DHT22;1280;49.760;9.664;2023-08-06T12:19:56;20.10;78.10
2539;DHT22;1280;49.760;9.664;2023-08-06T12:22:27;20.00;78.20
2539;DHT22;1280;49.760;9.664;2023-08-06T12:25:04;20.00;78.40
2539;DHT22;1280;49.760;9.664;2023-08-06T12:27:34;20.00;78.60
2539;DHT22;1280;49.760;9.664;2023-08-06T12:30:06;20.10;78.80
2539;DHT22;1280;49.760;9.664;2023-08-06T12:32:34;20.10;78.80
2539;DHT22;1280;49.760;9.664;2023-08-06T12:35:03;20.10;78.80
2539;DHT22;1280;49.760;9.664;2023-08-06T12:37:31;20.10;78.80
2539;DHT22;1280;49.760;9.664;2023-08-06T12:40:04;20.00;78.90
2539;DHT22;1280;49.760;9.664;2023-08-06T12:42:50;19.90;78.80
2539;DHT22;1280;49.760;9.664;2023-08-06T12:45:22;19.80;78.90
2539;DHT22;1280;49.760;9.664;2023-08-06T12:47:53;19.80;79.20
2539;DHT22;1280;49.760;9.664;2023-08-06T12:50:28;19.80;79.30
2539;DHT22;1280;49.760;9.664;2023-08-06T12:52:56;19.80;79.40
2539;DHT22;1280;49.760;9.664;2023-08-06T12:55:37;19.80;79.20
2539;DHT22;1280;49.760;9.664;2023-08-06T12:58:12;19.80;79.10
2539;DHT22;1280;49.760;9.664;2023-08-06T13:00:41;19.70;79.00
2539;DHT22;1280;49.760;9.664;2023-08-06T13:03:10;19.60;78.90
2539;DHT22;1280;49.760;9.664;2023-08-06T13:05:38;19.50;78.90
2539;DHT22;1280;49.760;9.664;2023-08-06T13:08:07;19.50;78.90
2539;DHT22;1280;49.760;9.664;2023-08-06T13:10:38;19.40;78.80
2539;DHT22;1280;49.760;9.664;2023-08-06T13:13:06;19.30;78.80
2539;DHT22;1280;49.760;9.664;2023-08-06T13:15:34;19.30;78.70
2539;DHT22;1280;49.760;9.664;2023-08-06T13:18:02;19.20;78.60
2539;DHT22;1280;49.760;9.664;2023-08-06T13:20:34;19.10;78.60
2539;DHT22;1280;49.760;9.664;2023-08-06T13:23:06;19.00;78.60
2539;DHT22;1280;49.760;9.664;2023-08-06T13:25:34;19.00;78.70
2539;DHT22;1280;49.760;9.664;2023-08-06T13:28:08;19.00;78.80
2539;DHT22;1280;49.760;9.664;2023-08-06T13:30:38;18.90;78.80
2539;DHT22;1280;49.760;9.664;2023-08-06T13:33:09;18.90;78.80
2539;DHT22;1280;49.760;9.664;2023-08-06T13:35:38;18.90;78.70
2539;DHT22;1280;49.760;9.664;2023-08-06T13:38:06;18.90;78.60
2539;DHT22;1280;49.760;9.664;2023-08-06T13:40:35;18.80;78.70
2539;DHT22;1280;49.760;9.664;2023-08-06T13:43:04;18.80;78.70
2539;DHT22;1280;49.760;9.664;2023-08-06T13:45:33;18.80;78.80
2539;DHT22;1280;49.760;9.664;2023-08-06T13:48:07;18.80;78.70
2539;DHT22;1280;49.760;9.664;2023-08-06T13:50:37;18.80;78.70
2539;DHT22;1280;49.760;9.664;2023-08-06T13:53:12;18.80;78.80
2539;DHT22;1280;49.760;9.664;2023-08-06T13:55:42;18.80;78.90
2539;DHT22;1280;49.760;9.664;2023-08-06T13:58:14;18.80;78.70
2539;DHT22;1280;49.760;9.664;2023-08-06T14:00:47;18.70;78.60
2539;DHT22;1280;49.760;9.664;2023-08-06T14:03:21;18.60;78.50
2539;DHT22;1280;49.760;9.664;2023-08-06T14:05:50;18.60;78.60
2539;DHT22;1280;49.760;9.664;2023-08-06T14:08:24;18.50;78.80
2539;DHT22;1280;49.760;9.664;2023-08-06T14:10:52;18.50;78.80
2539;DHT22;1280;49.760;9.664;2023-08-06T14:13:21;18.50;79.00
2539;DHT22;1280;49.760;9.664;2023-08-06T14:15:51;18.50;78.90
2539;DHT22;1280;49.760;9.664;2023-08-06T14:18:20;18.50;78.90
2539;DHT22;1280;49.760;9.664;2023-08-06T14:20:49;18.40;78.70
2539;DHT22;1280;49.760;9.664;2023-08-06T14:23:17;18.40;78.60
2539;DHT22;1280;49.760;9.664;2023-08-06T14:25:45;18.40;78.70
2539;DHT22;1280;49.760;9.664;2023-08-06T14:28:13;18.40;78.50
2539;DHT22;1280;49.760;9.664;2023-08-06T14:30:42;18.40;78.40
2539;DHT22;1280;49.760;9.664;2023-08-06T14:33:13;18.30;78.50
2539;DHT22;1280;49.760;9.664;2023-08-06T14:35:53;18.40;78.30
2539;DHT22;1280;49.760;9.664;2023-08-06T14:38:21;18.30;78.00
2539;DHT22;1280;49.760;9.664;2023-08-06T14:40:49;18.30;78.00
2539;DHT22;1280;49.760;9.664;2023-08-06T14:43:20;18.30;78.10
2539;DHT22;1280;49.760;9.664;2023-08-06T14:45:48;18.30;78.10
2539;DHT22;1280;49.760;9.664;2023-08-06T14:48:29;18.40;78.10
2539;DHT22;1280;49.760;9.664;2023-08-06T14:50:57;18.40;77.90
2539;DHT22;1280;49.760;9.664;2023-08-06T14:53:26;18.40;77.90
2539;DHT22;1280;49.760;9.664;2023-08-06T14:55:54;18.40;77.70
2539;DHT22;1280;49.760;9.664;2023-08-06T14:58:23;18.40;77.70
2539;DHT22;1280;49.760;9.664;2023-08-06T15:00:53;18.50;77.60
2539;DHT22;1280;49.760;9.664;2023-08-06T15:03:28;18.50;77.60
2539;DHT22;1280;49.760;9.664;2023-08-06T15:05:58;18.50;77.40
2539;DHT22;1280;49.760;9.664;2023-08-06T15:08:26;18.50;77.20
2539;DHT22;1280;49.760;9.664;2023-08-06T15:10:54;18.50;77.10
2539;DHT22;1280;49.760;9.664;2023-08-06T15:13:24;18.50;77.20
2539;DHT22;1280;49.760;9.664;2023-08-06T15:15:52;18.60;77.00
2539;DHT22;1280;49.760;9.664;2023-08-06T15:18:32;18.60;77.00
2539;DHT22;1280;49.760;9.664;2023-08-06T15:21:00;18.60;76.90
2539;DHT22;1280;49.760;9.664;2023-08-06T15:23:28;18.60;77.00
2539;DHT22;1280;49.760;9.664;2023-08-06T15:25:59;18.60;76.90
2539;DHT22;1280;49.760;9.664;2023-08-06T15:28:27;18.60;76.80
2539;DHT22;1280;49.760;9.664;2023-08-06T15:30:55;18.60;76.60
2539;DHT22;1280;49.760;9.664;2023-08-06T15:33:23;18.50;76.70
2539;DHT22;1280;49.760;9.664;2023-08-06T15:35:59;18.50;76.80
2539;DHT22;1280;49.760;9.664;2023-08-06T15:38:27;18.50;76.90
2539;DHT22;1280;49.760;9.664;2023-08-06T15:40:55;18.50;76.80
2539;DHT22;1280;49.760;9.664;2023-08-06T15:43:23;18.50;76.80
2539;DHT22;1280;49.760;9.664;2023-08-06T15:45:54;18.50;76.90
2539;DHT22;1280;49.760;9.664;2023-08-06T15:48:22;18.50;76.70
2539;DHT22;1280;49.760;9.664;2023-08-06T15:50:55;18.50;76.70
2539;DHT22;1280;49.760;9.664;2023-08-06T15:53:26;18.50;76.60
2539;DHT22;1280;49.760;9.664;2023-08-06T15:55:55;18.50;76.50
2539;DHT22;1280;49.760;9.664;2023-08-06T15:58:24;18.50;76.40
2539;DHT22;1280;49.760;9.664;2023-08-06T16:00:52;18.50;76.40
2539;DHT22;1280;49.760;9.664;2023-08-06T16:03:22;18.40;76.40
2539;DHT22;1280;49.760;9.664;2023-08-06T16:05:50;18.40;76.40
2539;DHT22;1280;49.760;9.664;2023-08-06T16:08:19;18.50;76.30
2539;DHT22;1280;49.760;9.664;2023-08-06T16:10:52;18.40;76.00
2539;DHT22;1280;49.760;9.664;2023-08-06T16:13:20;18.40;76.00
2539;DHT22;1280;49.760;9.664;2023-08-06T16:15:49;18.40;76.10
2539;DHT22;1280;49.760;9.664;2023-08-06T16:18:17;18.40;76.00
2539;DHT22;1280;49.760;9.664;2023-08-06T16:20:45;18.40;76.00
2539;DHT22;1280;49.760;9.664;2023-08-06T16:23:14;18.40;76.00